Time;durP1;ratioP1;P1;durP2;ratioP2;P2;SDS_P1;SDS_P2;PMS_P1;PMS_P2;Temp;Humidity;BMP_temperature;BMP_pressure;BME280_temperature;BME280_humidity;BME280_pressure;Samples;Min_cycle;Max_cycle;Signal;HPM_P1;HPM_P2
2023/09/23 00:01:28;;;;;;;2.08;1.00;;;10.90;99.90;;;;;;5033978;28;20489;-63
2023/09/23 00:03:54;;;;;;;1.80;1.00;;;10.90;99.90;;;;;;5041000;28;20036;-63
2023/09/23 00:06:21;;;;;;;;;;;11.00;99.90;;;;;;5037613;28;20041;-63
2023/09/23 00:08:47;;;;;;;1.70;1.17;;;11.00;99.90;;;;;;5040405;28;19932;-63
2023/09/23 00:11:13;;;;;;;1.55;1.40;;;11.00;99.90;;;;;;5034215;28;20452;-62
2023/09/23 00:13:39;;;;;;;;;;;11.00;99.90;;;;;;5042970;28;20042;-63
2023/09/23 00:16:08;;;;;;;2.80;1.58;;;10.90;99.90;;;;;;5031951;28;20432;-63
2023/09/23 00:18:34;;;;;;;2.85;1.55;;;10.90;99.90;;;;;;5026978;28;20064;-63
2023/09/23 00:21:00;;;;;;;;;;;10.90;99.90;;;;;;5024635;28;20144;-63
2023/09/23 00:23:27;;;;;;;3.13;1.60;;;10.80;99.90;;;;;;5025724;28;19921;-62
2023/09/23 00:25:52;;;;;;;4.07;2.45;;;10.80;99.90;;;;;;5016550;28;20520;-63
2023/09/23 00:28:20;;;;;;;;;;;10.80;99.90;;;;;;5027939;28;20045;-63
2023/09/23 00:30:46;;;;;;;3.05;2.10;;;10.70;99.90;;;;;;5032576;28;19928;-63
2023/09/23 00:33:14;;;;;;;;;;;10.70;99.90;;;;;;5065421;28;20041;-63
2023/09/23 00:35:41;;;;;;;2.97;2.13;;;10.70;99.90;;;;;;5066411;28;20351;-63
2023/09/23 00:38:07;;;;;;;3.88;1.98;;;10.60;99.90;;;;;;5066859;28;20044;-63
2023/09/23 00:40:32;;;;;;;3.20;2.03;;;10.60;99.90;;;;;;5064316;28;20049;-63
2023/09/23 00:43:11;;;;;;;;;;;10.60;99.90;;;;;;5063746;28;20435;-63
2023/09/23 00:45:42;;;;;;;2.35;1.95;;;10.60;99.90;;;;;;5072229;28;19925;-63
2023/09/23 00:48:08;;;;;;;2.30;2.10;;;10.60;99.90;;;;;;5065483;28;20047;-63
2023/09/23 00:50:34;;;;;;;;;;;10.60;99.90;;;;;;5071768;28;20032;-63
2023/09/23 00:53:00;;;;;;;2.55;2.10;;;10.70;99.90;;;;;;5064052;28;19928;-64
2023/09/23 00:55:30;;;;;;;;;;;10.60;99.90;;;;;;5067777;28;20530;-63
2023/09/23 00:58:00;;;;;;;4.68;2.50;;;10.60;99.90;;;;;;5065419;28;19917;-63
2023/09/23 01:00:28;;;;;;;3.70;2.50;;;10.60;99.90;;;;;;5065017;28;20452;-63
2023/09/23 01:02:57;;;;;;;5.72;2.67;;;10.60;99.90;;;;;;5061867;28;20040;-63
2023/09/23 01:05:27;;;;;;;7.10;2.80;;;10.60;99.90;;;;;;5065746;28;20051;-63
2023/09/23 01:07:56;;;;;;;3.35;2.20;;;10.50;99.90;;;;;;5062960;28;20040;-63
2023/09/23 01:10:21;;;;;;;5.43;2.25;;;10.50;99.90;;;;;;5066893;28;20068;-63
2023/09/23 01:12:48;;;;;;;;;;;10.40;99.90;;;;;;5061508;28;20040;-64
2023/09/23 01:15:18;;;;;;;2.67;2.47;;;10.40;99.90;;;;;;5063364;28;19924;-63
2023/09/23 01:17:53;;;;;;;3.65;2.13;;;10.40;99.90;;;;;;5062356;28;20040;-63
2023/09/23 01:20:19;;;;;;;2.97;2.67;;;10.40;99.90;;;;;;5064512;28;20044;-63
2023/09/23 01:22:47;;;;;;;2.38;2.10;;;10.40;99.90;;;;;;5061726;28;20045;-63
2023/09/23 01:25:13;;;;;;;2.85;1.85;;;10.30;99.90;;;;;;5066257;28;20044;-62
2023/09/23 01:27:39;;;;;;;2.97;1.83;;;10.40;99.90;;;;;;5060932;28;20056;-63
2023/09/23 01:30:05;;;;;;;;;;;10.50;99.90;;;;;;5065807;28;20626;-62
2023/09/23 01:32:53;;;;;;;2.38;1.85;;;10.50;99.90;;;;;;5060214;28;19963;-63
2023/09/23 01:35:20;;;;;;;1.90;1.73;;;10.50;99.90;;;;;;5063994;28;20037;-63
2023/09/23 01:37:47;;;;;;;2.65;2.03;;;10.50;99.90;;;;;;5060034;28;20443;-63
2023/09/23 01:40:19;;;;;;;2.03;1.60;;;10.50;99.90;;;;;;5065907;28;20040;-64
2023/09/23 01:42:48;;;;;;;6.10;1.80;;;10.50;99.90;;;;;;5058489;28;20047;-64
2023/09/23 01:45:14;;;;;;;4.57;1.67;;;10.50;99.90;;;;;;5065469;28;20087;-64
2023/09/23 01:47:41;;;;;;;;;;;10.50;99.90;;;;;;5060846;28;20109;-64
2023/09/23 01:50:09;;;;;;;3.73;1.63;;;10.50;99.90;;;;;;5063660;28;20007;-64
2023/09/23 01:52:36;;;;;;;1.80;1.70;;;10.50;99.90;;;;;;5060583;28;20037;-64
2023/09/23 01:55:03;;;;;;;1.50;1.33;;;10.50;99.90;;;;;;5065426;28;20119;-64
2023/09/23 01:57:30;;;;;;;2.05;1.38;;;10.50;99.90;;;;;;5061182;28;20055;-64
2023/09/23 01:59:55;;;;;;;1.38;1.27;;;10.50;99.90;;;;;;5062626;28;20056;-64
2023/09/23 02:02:21;;;;;;;;;;;10.50;99.90;;;;;;5062936;28;20059;-64
2023/09/23 02:04:47;;;;;;;2.60;1.35;;;10.50;99.90;;;;;;5065885;28;19920;-64
2023/09/23 02:07:13;;;;;;;2.45;1.60;;;10.50;99.90;;;;;;5062390;28;20619;-61
2023/09/23 02:09:39;;;;;;;;;;;10.50;99.90;;;;;;5066014;28;20040;-62
2023/09/23 02:12:05;;;;;;;1.88;1.08;;;10.50;99.90;;;;;;5060697;28;19916;-63
2023/09/23 02:14:30;;;;;;;2.97;1.70;;;10.50;99.90;;;;;;5058230;28;20161;-62
2023/09/23 02:16:57;;;;;;;;;;;10.50;99.90;;;;;;5059271;28;20891;-63
2023/09/23 02:19:24;;;;;;;4.25;2.10;;;10.50;99.90;;;;;;5061402;28;20398;-62
2023/09/23 02:21:51;;;;;;;2.67;1.65;;;10.50;99.90;;;;;;5060930;28;20063;-64
2023/09/23 02:24:20;;;;;;;1.88;1.50;;;10.50;99.90;;;;;;5063957;28;20471;-62
2023/09/23 02:26:46;;;;;;;2.13;1.70;;;10.50;99.90;;;;;;5058837;28;20055;-62
2023/09/23 02:29:15;;;;;;;2.92;1.80;;;10.50;99.90;;;;;;5057719;28;20033;-62
2023/09/23 02:31:46;;;;;;;2.83;1.75;;;10.50;99.90;;;;;;5059150;28;20033;-63
2023/09/23 02:34:14;;;;;;;4.50;2.08;;;10.40;99.90;;;;;;5062797;28;20036;-63
2023/09/23 02:36:41;;;;;;;2.08;1.40;;;10.40;99.90;;;;;;5059990;28;20036;-62
2023/09/23 02:39:06;;;;;;;2.78;1.77;;;10.40;99.90;;;;;;5061047;28;20028;-62
2023/09/23 02:41:33;;;;;;;;;;;10.40;99.90;;;;;;5060330;28;20044;-62
2023/09/23 02:43:58;;;;;;;2.30;1.70;;;10.40;99.90;;;;;;5064187;28;20313;-63
2023/09/23 02:46:24;;;;;;;;;;;10.40;99.90;;;;;;5060807;28;20083;-64
2023/09/23 02:48:49;;;;;;;4.88;1.65;;;10.40;99.90;;;;;;5058286;28;20264;-63
2023/09/23 02:51:15;;;;;;;;;;;10.50;99.90;;;;;;5057107;28;20400;-63
2023/09/23 02:53:40;;;;;;;1.75;1.58;;;10.50;99.90;;;;;;5059598;28;19912;-63
2023/09/23 02:56:07;;;;;;;4.45;1.95;;;10.40;99.90;;;;;;5058950;28;20132;-63
2023/09/23 02:58:34;;;;;;;2.20;1.70;;;10.40;99.90;;;;;;5064449;28;20036;-63
2023/09/23 03:01:04;;;;;;;5.80;1.90;;;10.30;99.90;;;;;;5061010;28;20111;-63
2023/09/23 03:03:30;;;;;;;1.60;1.50;;;10.30;99.90;;;;;;5060843;28;20758;-63
2023/09/23 03:05:57;;;;;;;2.08;1.60;;;10.30;99.90;;;;;;5058218;28;20071;-63
2023/09/23 03:08:23;;;;;;;4.93;1.60;;;10.20;99.90;;;;;;5059141;28;20041;-63
2023/09/23 03:10:51;;;;;;;3.35;2.05;;;10.20;99.90;;;;;;5063656;28;20032;-64
2023/09/23 03:13:18;;;;;;;4.18;1.70;;;10.20;99.90;;;;;;5062120;28;20040;-62
2023/09/23 03:15:53;;;;;;;2.25;1.60;;;10.20;99.90;;;;;;5060638;28;20396;-63
2023/09/23 03:18:29;;;;;;;1.77;1.45;;;10.20;99.90;;;;;;5058546;28;20039;-63
2023/09/23 03:20:55;;;;;;;5.53;1.63;;;10.20;99.90;;;;;;5060106;28;20110;-64
2023/09/23 03:23:21;;;;;;;1.33;1.20;;;10.10;99.90;;;;;;5064518;28;20064;-63
2023/09/23 03:25:47;;;;;;;;;;;10.10;99.90;;;;;;5064373;28;20115;-64
2023/09/23 03:28:15;;;;;;;3.63;1.67;;;10.10;99.90;;;;;;5060068;28;19921;-63
2023/09/23 03:30:43;;;;;;;1.65;1.30;;;10.20;99.90;;;;;;5062902;28;20659;-63
2023/09/23 03:33:10;;;;;;;2.72;1.50;;;10.10;99.90;;;;;;5061219;28;20868;-64
2023/09/23 03:35:36;;;;;;;1.55;1.40;;;10.10;99.90;;;;;;5062866;28;20066;-64
2023/09/23 03:38:01;;;;;;;;;;;10.10;99.90;;;;;;5063572;28;20040;-65
2023/09/23 03:40:29;;;;;;;1.73;1.17;;;10.10;99.90;;;;;;5063944;28;19920;-63
2023/09/23 03:42:55;;;;;;;2.88;1.63;;;10.00;99.90;;;;;;5063053;28;20051;-63
2023/09/23 03:45:20;;;;;;;;;;;10.00;99.90;;;;;;5065108;28;20033;-63
2023/09/23 03:47:46;;;;;;;3.28;1.42;;;10.00;99.90;;;;;;5059924;28;19978;-62
2023/09/23 03:50:16;;;;;;;1.88;1.60;;;10.10;99.90;;;;;;5066450;28;20076;-63
2023/09/23 03:52:42;;;;;;;3.00;1.90;;;10.10;99.90;;;;;;5063229;28;20067;-63
2023/09/23 03:55:09;;;;;;;3.42;1.65;;;10.00;99.90;;;;;;5066190;28;20047;-63
2023/09/23 03:57:35;;;;;;;4.22;1.80;;;10.00;99.90;;;;;;5065036;28;20049;-64
2023/09/23 04:00:01;;;;;;;;;;;10.00;99.90;;;;;;5068121;28;20041;-63
2023/09/23 04:02:26;;;;;;;4.78;2.38;;;10.10;99.90;;;;;;5065311;28;20414;-64
2023/09/23 04:04:53;;;;;;;;;;;10.00;99.90;;;;;;5065340;28;20048;-63
2023/09/23 04:07:22;;;;;;;3.88;2.38;;;10.00;99.90;;;;;;5063922;28;19920;-63
2023/09/23 04:09:47;;;;;;;4.68;3.22;;;10.10;99.90;;;;;;5067549;28;20049;-63
2023/09/23 04:12:13;;;;;;;;;;;10.00;99.90;;;;;;5066706;28;20043;-63
2023/09/23 04:14:39;;;;;;;5.55;3.47;;;10.00;99.90;;;;;;5067562;28;19924;-63
2023/09/23 04:17:05;;;;;;;;;;;10.00;99.90;;;;;;5069587;28;20052;-63
2023/09/23 04:19:30;;;;;;;5.80;2.78;;;10.10;99.90;;;;;;5069025;28;19920;-63
2023/09/23 04:21:57;;;;;;;;;;;10.10;99.90;;;;;;5069891;28;20040;-63
2023/09/23 04:24:26;;;;;;;4.05;2.80;;;10.10;99.90;;;;;;5070474;28;19919;-63
2023/09/23 04:26:53;;;;;;;6.38;3.13;;;10.10;99.90;;;;;;5060329;28;20059;-63
2023/09/23 04:29:20;;;;;;;9.45;3.20;;;10.10;99.90;;;;;;5063216;28;20727;-64
2023/09/23 04:31:46;;;;;;;6.03;3.50;;;10.10;99.90;;;;;;5064435;28;20070;-64
2023/09/23 04:34:13;;;;;;;7.55;3.60;;;10.10;99.90;;;;;;5063738;28;20032;-64
2023/09/23 04:36:39;;;;;;;6.68;3.88;;;10.10;99.90;;;;;;5066952;28;20068;-64
2023/09/23 04:39:06;;;;;;;;;;;10.20;99.90;;;;;;5069585;28;20096;-64
2023/09/23 04:41:32;;;;;;;8.90;3.72;;;10.10;99.90;;;;;;5066501;28;20367;-63
2023/09/23 04:43:57;;;;;;;;;;;10.20;99.90;;;;;;5067281;28;20135;-64
2023/09/23 04:46:23;;;;;;;7.40;4.07;;;10.20;99.90;;;;;;5066283;28;19920;-64
2023/09/23 04:48:50;;;;;;;;;;;10.20;99.90;;;;;;5067213;28;20036;-64
2023/09/23 04:51:17;;;;;;;8.80;5.00;;;10.20;99.90;;;;;;5064895;28;19920;-64
2023/09/23 04:53:42;;;;;;;9.60;4.40;;;10.20;99.90;;;;;;5069416;28;20044;-63
2023/09/23 04:56:16;;;;;;;;;;;10.30;99.90;;;;;;5065138;28;20596;-63
2023/09/23 04:58:42;;;;;;;6.65;4.03;;;10.30;99.90;;;;;;5068032;28;20547;-64
2023/09/23 05:01:09;;;;;;;;;;;10.30;99.90;;;;;;5063803;28;20051;-64
2023/09/23 05:03:36;;;;;;;7.43;4.38;;;10.30;99.90;;;;;;5062636;28;20367;-64
2023/09/23 05:06:02;;;;;;;9.73;3.72;;;10.20;99.90;;;;;;5065236;28;20111;-64
2023/09/23 05:08:28;;;;;;;;;;;10.10;99.90;;;;;;5066375;28;20448;-63
2023/09/23 05:10:53;;;;;;;7.47;3.97;;;10.10;99.90;;;;;;5065957;28;19924;-63
2023/09/23 05:13:19;;;;;;;;;;;10.20;99.90;;;;;;5059044;28;20040;-63
2023/09/23 05:15:45;;;;;;;8.95;4.13;;;10.20;99.90;;;;;;5064167;28;19963;-63
2023/09/23 05:18:10;;;;;;;;;;;10.20;99.90;;;;;;5061401;28;20044;-64
2023/09/23 05:20:37;;;;;;;8.07;3.55;;;10.30;99.90;;;;;;5065844;28;19916;-64
2023/09/23 05:23:05;;;;;;;;;;;10.30;99.90;;;;;;5063429;28;20459;-64
2023/09/23 05:25:31;;;;;;;8.18;3.78;;;10.30;99.90;;;;;;5067370;28;19974;-64
2023/09/23 05:27:57;;;;;;;7.20;3.72;;;10.30;99.90;;;;;;5064113;28;20496;-63
2023/09/23 05:30:26;;;;;;;6.28;3.60;;;10.30;99.90;;;;;;5062490;28;20047;-64
2023/09/23 05:32:52;;;;;;;7.80;3.55;;;10.30;99.90;;;;;;5066793;28;20044;-65
2023/09/23 05:35:18;;;;;;;;;;;10.30;99.90;;;;;;5062904;28;21816;-64
2023/09/23 05:37:44;;;;;;;5.80;3.20;;;10.30;99.90;;;;;;5063512;28;19920;-64
2023/09/23 05:40:20;;;;;;;;;;;10.30;99.90;;;;;;5067617;28;20044;-65
2023/09/23 05:42:47;;;;;;;6.80;3.13;;;10.30;99.90;;;;;;5064126;28;19951;-65
2023/09/23 05:45:14;;;;;;;5.32;3.17;;;10.30;99.90;;;;;;5060905;28;20036;-65
2023/09/23 05:47:45;;;;;;;7.82;2.80;;;10.40;99.90;;;;;;5062369;28;20048;-65
2023/09/23 05:50:11;;;;;;;9.75;3.20;;;10.40;99.90;;;;;;5065234;28;20052;-65
2023/09/23 05:52:36;;;;;;;;;;;10.50;99.90;;;;;;5058639;28;20040;-66
2023/09/23 05:55:06;;;;;;;10.30;2.90;;;10.50;99.90;;;;;;5061554;28;20039;-66
2023/09/23 05:57:34;;;;;;;7.18;2.75;;;10.60;99.90;;;;;;5063078;28;20044;-66
2023/09/23 06:00:01;;;;;;;7.70;2.80;;;10.60;99.90;;;;;;5064690;28;20047;-66
2023/09/23 06:02:27;;;;;;;5.40;2.53;;;10.60;99.90;;;;;;5055077;28;20074;-66
2023/09/23 06:04:54;;;;;;;;;;;10.70;99.90;;;;;;5058315;28;20036;-66
2023/09/23 06:07:19;;;;;;;9.65;2.53;;;10.80;99.90;;;;;;5059883;28;19927;-65
2023/09/23 06:09:45;;;;;;;;;;;10.80;99.90;;;;;;5065512;28;20041;-65
2023/09/23 06:12:11;;;;;;;6.05;2.10;;;10.90;99.90;;;;;;5061763;28;19931;-65
2023/09/23 06:14:36;;;;;;;4.97;1.85;;;11.00;99.90;;;;;;5064412;28;20483;-65
2023/09/23 06:17:02;;;;;;;;;;;11.00;99.90;;;;;;5064122;28;20412;-65
2023/09/23 06:19:27;;;;;;;6.22;1.60;;;11.00;99.90;;;;;;5062574;28;19928;-65
2023/09/23 06:21:54;;;;;;;;;;;11.10;99.90;;;;;;5064600;28;20036;-66
2023/09/23 06:24:20;;;;;;;3.97;1.77;;;11.40;99.90;;;;;;5063200;28;20455;-66
2023/09/23 06:26:45;;;;;;;;;;;11.40;99.90;;;;;;5061593;28;20140;-64
2023/09/23 06:29:14;;;;;;;4.13;1.35;;;11.30;99.90;;;;;;5053505;28;19921;-64
2023/09/23 06:31:40;;;;;;;5.63;1.50;;;11.30;99.90;;;;;;5055905;28;20599;-64
2023/09/23 06:34:06;;;;;;;4.47;1.30;;;11.20;99.90;;;;;;5061933;28;20033;-64
2023/09/23 06:36:32;;;;;;;;;;;11.30;99.90;;;;;;5055793;28;20598;-64
2023/09/23 06:38:57;;;;;;;3.30;1.30;;;11.30;99.90;;;;;;5063110;28;20007;-64
2023/09/23 06:41:23;;;;;;;;;;;11.30;99.90;;;;;;5053087;28;20391;-65
2023/09/23 06:43:49;;;;;;;4.53;1.58;;;11.30;99.90;;;;;;5063279;28;19912;-65
2023/09/23 06:46:14;;;;;;;;;;;11.30;99.90;;;;;;5060019;28;20036;-64
2023/09/23 06:48:41;;;;;;;3.65;1.50;;;11.30;99.90;;;;;;5061136;28;20597;-64
2023/09/23 06:51:07;;;;;;;6.25;1.67;;;11.20;99.90;;;;;;5055650;28;20079;-64
2023/09/23 06:53:33;;;;;;;3.92;1.63;;;11.20;99.90;;;;;;5058866;28;20043;-64
2023/09/23 06:55:58;;;;;;;;;;;11.30;99.90;;;;;;5056800;28;20049;-64
2023/09/23 06:58:24;;;;;;;3.95;1.20;;;11.30;99.90;;;;;;5063038;28;19928;-64
2023/09/23 07:00:49;;;;;;;;;;;11.40;99.90;;;;;;5057688;28;20436;-64
2023/09/23 07:03:15;;;;;;;4.40;1.60;;;11.40;99.90;;;;;;5060352;28;19926;-64
2023/09/23 07:05:43;;;;;;;4.18;1.50;;;11.50;99.90;;;;;;5061709;28;20566;-64
2023/09/23 07:08:09;;;;;;;3.72;1.20;;;11.50;99.90;;;;;;5060669;28;20041;-64
2023/09/23 07:10:35;;;;;;;2.80;1.38;;;11.60;99.90;;;;;;5064006;28;20036;-64
2023/09/23 07:13:03;;;;;;;5.63;1.50;;;11.70;99.90;;;;;;5060216;28;20032;-64
2023/09/23 07:15:40;;;;;;;4.65;1.23;;;11.60;99.90;;;;;;5053761;28;20072;-64
2023/09/23 07:18:06;;;;;;;;;;;11.50;99.90;;;;;;5062827;28;20551;-64
2023/09/23 07:20:33;;;;;;;5.17;1.30;;;11.50;99.90;;;;;;5062651;28;20548;-64
2023/09/23 07:22:59;;;;;;;7.15;1.33;;;11.40;99.90;;;;;;5058282;28;20460;-64
2023/09/23 07:25:25;;;;;;;6.60;1.55;;;11.50;99.90;;;;;;5062023;28;20051;-64
2023/09/23 07:27:51;;;;;;;1.85;0.90;;;11.50;99.90;;;;;;5064770;28;20739;-64
2023/09/23 07:30:17;;;;;;;;;;;11.50;99.90;;;;;;5061744;28;20036;-64
2023/09/23 07:32:43;;;;;;;5.38;1.27;;;11.50;99.90;;;;;;5065612;28;20295;-65
2023/09/23 07:35:09;;;;;;;;;;;11.50;99.90;;;;;;5066642;28;20034;-65
2023/09/23 07:37:35;;;;;;;4.28;0.93;;;11.40;99.90;;;;;;5065794;28;19923;-64
2023/09/23 07:40:00;;;;;;;;;;;11.40;99.90;;;;;;5066277;28;20037;-64
2023/09/23 07:42:26;;;;;;;4.40;1.38;;;11.40;99.90;;;;;;5063216;28;19920;-64
2023/09/23 07:44:52;;;;;;;;;;;11.30;99.90;;;;;;5065164;28;20158;-64
2023/09/23 07:47:17;;;;;;;5.28;1.10;;;11.40;99.90;;;;;;5062964;28;19959;-64
2023/09/23 07:49:43;;;;;;;;;;;11.50;99.90;;;;;;5063829;28;20055;-64
2023/09/23 07:52:09;;;;;;;3.80;1.23;;;11.50;99.90;;;;;;5064355;28;19919;-64
2023/09/23 07:54:38;;;;;;;4.88;1.50;;;11.50;99.90;;;;;;5065571;28;20032;-65
2023/09/23 07:57:03;;;;;;;5.72;1.23;;;11.50;99.90;;;;;;5061627;28;20048;-64
2023/09/23 07:59:29;;;;;;;;;;;11.40;99.90;;;;;;5064071;28;20122;-64
2023/09/23 08:01:54;;;;;;;7.25;1.98;;;11.30;99.90;;;;;;5061334;28;20022;-64
2023/09/23 08:04:20;;;;;;;;;;;11.30;99.90;;;;;;5066642;28;20123;-64
2023/09/23 08:06:46;;;;;;;3.15;1.17;;;11.30;99.90;;;;;;5057827;28;20015;-64
2023/09/23 08:09:11;;;;;;;;;;;11.40;99.90;;;;;;5067153;28;20432;-65
2023/09/23 08:11:37;;;;;;;5.72;1.48;;;11.40;99.90;;;;;;5061418;28;19917;-64
2023/09/23 08:14:02;;;;;;;;;;;11.40;99.90;;;;;;5066352;28;20044;-64
2023/09/23 08:16:28;;;;;;;4.35;1.38;;;11.40;99.90;;;;;;5062729;28;20003;-65
2023/09/23 08:18:53;;;;;;;;;;;11.40;99.90;;;;;;5062870;28;20036;-64
2023/09/23 08:21:19;;;;;;;6.68;1.85;;;11.40;99.90;;;;;;5057860;28;19931;-65
2023/09/23 08:23:45;;;;;;;;;;;11.40;99.90;;;;;;5060776;28;20033;-64
2023/09/23 08:26:10;;;;;;;4.88;1.30;;;11.40;99.90;;;;;;5056336;28;20649;-64
2023/09/23 08:28:36;;;;;;;;;;;11.40;99.90;;;;;;5064846;28;20047;-64
2023/09/23 08:31:02;;;;;;;5.50;1.45;;;11.40;99.90;;;;;;5063022;28;19921;-65
2023/09/23 08:33:28;;;;;;;3.30;1.42;;;11.40;99.90;;;;;;5061837;28;20123;-64
2023/09/23 08:35:54;;;;;;;;;;;11.40;99.90;;;;;;5060745;28;20036;-64
2023/09/23 08:38:20;;;;;;;4.05;2.10;;;11.40;99.90;;;;;;5062972;28;19923;-64
2023/09/23 08:40:46;;;;;;;4.93;1.60;;;11.30;99.90;;;;;;5065964;28;20044;-65
2023/09/23 08:43:12;;;;;;;5.45;1.88;;;11.30;99.90;;;;;;5056506;28;20103;-64
2023/09/23 08:45:43;;;;;;;;;;;11.40;99.90;;;;;;5056490;28;20039;-62
2023/09/23 08:48:11;;;;;;;5.47;1.58;;;11.40;99.90;;;;;;5060578;28;20010;-62
2023/09/23 08:50:42;;;;;;;7.20;2.05;;;11.40;99.90;;;;;;5062926;28;20040;-63
2023/09/23 08:53:08;;;;;;;4.55;1.92;;;11.40;99.90;;;;;;5065808;28;20036;-62
2023/09/23 08:55:35;;;;;;;6.45;1.77;;;11.50;99.90;;;;;;5064132;28;20036;-63
2023/09/23 08:58:04;;;;;;;5.00;1.80;;;11.50;99.90;;;;;;5061977;28;20105;-63
2023/09/23 09:00:30;;;;;;;5.22;2.00;;;11.50;99.90;;;;;;5060779;28;20048;-63
2023/09/23 09:02:57;;;;;;;4.25;1.50;;;11.70;99.90;;;;;;5064023;28;20740;-63
2023/09/23 09:05:23;;;;;;;4.90;1.80;;;11.70;99.90;;;;;;5059359;28;20055;-63
2023/09/23 09:07:49;;;;;;;5.00;1.70;;;11.80;99.90;;;;;;5060858;28;20090;-64
2023/09/23 09:10:17;;;;;;;9.98;2.40;;;12.00;99.90;;;;;;5065593;28;20138;-63
2023/09/23 09:12:42;;;;;;;7.80;2.38;;;12.10;99.90;;;;;;5056731;28;20042;-63
2023/09/23 09:15:08;;;;;;;;;;;12.20;99.90;;;;;;5054786;28;20040;-64
2023/09/23 09:17:34;;;;;;;4.65;1.95;;;12.60;99.90;;;;;;5061459;28;20665;-64
2023/09/23 09:20:01;;;;;;;;;;;12.80;99.90;;;;;;5059229;28;20054;-63
2023/09/23 09:22:26;;;;;;;2.60;1.77;;;13.00;99.90;;;;;;5060475;28;19927;-63
2023/09/23 09:24:52;;;;;;;;;;;13.20;99.90;;;;;;5059734;28;20442;-63
2023/09/23 09:27:17;;;;;;;5.95;2.00;;;13.10;99.90;;;;;;5055674;28;19920;-63
2023/09/23 09:29:44;;;;;;;4.97;2.15;;;13.00;99.90;;;;;;5059129;28;20475;-63
2023/09/23 09:32:10;;;;;;;3.13;1.80;;;12.90;99.90;;;;;;5060101;28;20036;-63
2023/09/23 09:34:45;;;;;;;4.63;1.90;;;12.80;99.90;;;;;;5064969;28;20599;-64
2023/09/23 09:37:13;;;;;;;4.63;2.10;;;12.90;99.90;;;;;;5063289;28;20143;-64
2023/09/23 09:39:50;;;;;;;5.03;1.88;;;13.10;99.90;;;;;;5058048;28;20049;-63
2023/09/23 09:42:24;;;;;;;3.70;1.88;;;13.20;99.90;;;;;;5060599;28;20051;-64
2023/09/23 09:44:55;;;;;;;4.53;2.03;;;13.20;99.90;;;;;;5061535;28;20388;-64
2023/09/23 09:47:22;;;;;;;5.88;1.88;;;13.50;99.90;;;;;;5056231;28;20581;-63
2023/09/23 09:49:54;;;;;;;2.90;1.63;;;13.40;99.90;;;;;;5053663;28;21081;-64
2023/09/23 09:52:22;;;;;;;3.47;1.40;;;13.20;99.90;;;;;;5059325;28;20055;-63
2023/09/23 09:54:56;;;;;;;5.85;1.92;;;13.20;99.90;;;;;;5057307;28;20416;-63
2023/09/23 09:57:22;;;;;;;5.10;1.60;;;13.00;99.90;;;;;;5060914;28;20109;-65
2023/09/23 09:59:51;;;;;;;4.80;1.50;;;13.10;99.90;;;;;;5061917;28;20728;-64
2023/09/23 10:02:18;;;;;;;4.90;1.60;;;13.10;99.90;;;;;;5059700;28;20086;-62
2023/09/23 10:04:49;;;;;;;8.02;1.60;;;13.00;99.90;;;;;;5060346;28;20044;-62
2023/09/23 10:07:16;;;;;;;3.90;1.90;;;13.10;99.90;;;;;;5058230;28;20069;-64
2023/09/23 10:09:53;;;;;;;3.85;1.52;;;13.00;99.90;;;;;;5056974;28;20041;-64
2023/09/23 10:12:24;;;;;;;3.75;1.75;;;13.10;99.90;;;;;;5061024;28;20051;-64
2023/09/23 10:14:55;;;;;;;5.82;1.73;;;13.00;99.90;;;;;;5062894;28;20555;-64
2023/09/23 10:17:30;;;;;;;3.70;1.10;;;13.20;99.90;;;;;;5058814;28;20134;-64
2023/09/23 10:19:56;;;;;;;3.35;1.58;;;13.40;99.90;;;;;;5064302;28;20044;-66
2023/09/23 10:22:23;;;;;;;;;;;13.60;99.90;;;;;;5060877;28;20044;-64
2023/09/23 10:25:04;;;;;;;5.30;1.10;;;13.70;99.90;;;;;;5061847;28;20276;-67
2023/09/23 10:27:30;;;;;;;4.60;1.50;;;13.90;99.90;;;;;;5062572;28;20050;-65
2023/09/23 10:29:56;;;;;;;4.93;0.98;;;14.10;99.90;;;;;;5057885;28;20040;-66
2023/09/23 10:32:21;;;;;;;;;;;14.30;99.90;;;;;;5059694;28;20052;-67
2023/09/23 10:34:53;;;;;;;3.63;1.13;;;14.50;99.90;;;;;;5064024;28;19983;-63
2023/09/23 10:37:29;;;;;;;3.33;1.00;;;14.60;99.90;;;;;;5059746;28;20033;-64
2023/09/23 10:39:59;;;;;;;5.13;1.05;;;14.70;99.90;;;;;;5058662;28;20049;-64
2023/09/23 10:42:24;;;;;;;3.63;0.82;;;14.70;99.90;;;;;;5059887;28;20044;-64
2023/09/23 10:44:50;;;;;;;;;;;14.60;99.90;;;;;;5057368;28;20033;-64
2023/09/23 10:47:16;;;;;;;3.25;1.08;;;14.60;99.90;;;;;;5059501;28;19974;-63
2023/09/23 10:49:41;;;;;;;2.97;0.93;;;14.80;99.90;;;;;;5055342;28;20518;-63
2023/09/23 10:52:07;;;;;;;;;;;14.90;99.90;;;;;;5057183;28;20093;-63
2023/09/23 10:54:35;;;;;;;6.45;1.10;;;14.90;99.90;;;;;;5063305;28;20643;-63
2023/09/23 10:57:01;;;;;;;2.83;1.00;;;14.80;99.90;;;;;;5059995;28;20076;-64
2023/09/23 10:59:27;;;;;;;1.80;0.77;;;14.90;99.90;;;;;;5055679;28;20408;-64
2023/09/23 11:01:56;;;;;;;4.32;0.88;;;15.00;99.90;;;;;;5053830;28;21216;-64
2023/09/23 11:04:23;;;;;;;4.90;1.02;;;15.10;99.90;;;;;;5058053;28;20057;-64
2023/09/23 11:06:49;;;;;;;1.92;0.80;;;15.20;99.90;;;;;;5057051;28;20099;-64
2023/09/23 11:09:15;;;;;;;;;;;15.20;99.90;;;;;;5063076;28;20044;-63
2023/09/23 11:11:41;;;;;;;2.08;0.80;;;15.00;99.90;;;;;;5060889;28;20015;-64
2023/09/23 11:14:12;;;;;;;2.35;0.75;;;14.60;99.90;;;;;;5064267;28;20068;-63
2023/09/23 11:16:42;;;;;;;2.22;0.73;;;14.50;99.90;;;;;;5060300;28;20838;-63
2023/09/23 11:19:08;;;;;;;5.60;1.10;;;14.60;99.90;;;;;;5064312;28;20045;-63
2023/09/23 11:21:43;;;;;;;;;;;14.70;99.90;;;;;;5062932;28;20040;-63
2023/09/23 11:24:08;;;;;;;2.22;0.90;;;14.90;99.90;;;;;;5065497;28;20376;-64
2023/09/23 11:26:38;;;;;;;;;;;15.00;99.90;;;;;;5063128;28;20048;-64
2023/09/23 11:29:04;;;;;;;2.30;0.75;;;15.10;99.90;;;;;;5062789;28;19916;-63
2023/09/23 11:31:31;;;;;;;;;;;15.30;99.90;;;;;;5058152;28;20780;-64
2023/09/23 11:33:57;;;;;;;2.00;0.80;;;15.60;99.90;;;;;;5060344;28;19953;-63
2023/09/23 11:36:22;;;;;;;;;;;15.50;99.90;;;;;;5059838;28;20538;-65
2023/09/23 11:38:49;;;;;;;2.88;0.88;;;15.50;99.90;;;;;;5061340;28;19924;-64
2023/09/23 11:41:15;;;;;;;1.77;0.63;;;15.40;99.90;;;;;;5055882;28;20082;-64
2023/09/23 11:43:40;;;;;;;;;;;15.20;99.90;;;;;;5058023;28;20041;-64
2023/09/23 11:46:06;;;;;;;2.88;0.60;;;15.10;99.90;;;;;;5056882;28;19920;-64
2023/09/23 11:48:32;;;;;;;2.22;0.85;;;14.90;99.90;;;;;;5058063;28;20091;-64
2023/09/23 11:50:57;;;;;;;;;;;14.90;99.90;;;;;;5053209;28;20040;-64
2023/09/23 11:53:24;;;;;;;3.25;1.20;;;15.10;99.90;;;;;;5059468;28;20667;-63
2023/09/23 11:55:50;;;;;;;4.63;1.13;;;15.10;99.90;;;;;;5049551;28;20380;-63
2023/09/23 11:58:16;;;;;;;;;;;15.10;99.90;;;;;;5059428;28;20135;-64
2023/09/23 12:00:42;;;;;;;3.60;0.87;;;15.10;99.90;;;;;;5061430;28;19921;-64
2023/09/23 12:03:07;;;;;;;;;;;15.00;99.90;;;;;;5060278;28;20060;-64
2023/09/23 12:05:33;;;;;;;3.58;0.82;;;15.10;99.90;;;;;;5058358;28;19916;-65
2023/09/23 12:07:59;;;;;;;;;;;15.00;99.90;;;;;;5062900;28;20131;-64
2023/09/23 12:10:25;;;;;;;3.17;0.70;;;14.90;99.90;;;;;;5059115;28;19931;-64
2023/09/23 12:12:51;;;;;;;3.47;1.00;;;14.90;99.90;;;;;;5057322;28;20507;-63
2023/09/23 12:15:16;;;;;;;;;;;14.80;99.90;;;;;;5061728;28;20032;-65
2023/09/23 12:17:42;;;;;;;2.30;0.70;;;14.70;99.90;;;;;;5062799;28;19943;-65
2023/09/23 12:20:11;;;;;;;;;;;14.60;99.90;;;;;;5059278;28;20047;-64
2023/09/23 12:22:38;;;;;;;4.38;0.80;;;14.60;99.90;;;;;;5057712;28;19916;-64
2023/09/23 12:25:06;;;;;;;2.33;0.90;;;14.60;99.90;;;;;;5056024;28;20037;-64
2023/09/23 12:27:32;;;;;;;3.13;0.90;;;14.60;99.90;;;;;;5065215;28;20040;-64
2023/09/23 12:29:58;;;;;;;6.15;0.90;;;14.50;99.90;;;;;;5059192;28;20048;-63
2023/09/23 12:32:23;;;;;;;;;;;14.40;99.90;;;;;;5061439;28;20661;-63
2023/09/23 12:34:49;;;;;;;2.95;0.98;;;14.40;99.90;;;;;;5062342;28;19927;-63
2023/09/23 12:37:15;;;;;;;;;;;14.40;99.90;;;;;;5057288;28;20041;-63
2023/09/23 12:39:40;;;;;;;2.97;0.80;;;14.40;99.90;;;;;;5064445;28;19930;-63
2023/09/23 12:42:06;;;;;;;4.30;1.10;;;14.40;99.90;;;;;;5061626;28;20047;-63
2023/09/23 12:44:32;;;;;;;;;;;14.50;99.90;;;;;;5066427;28;20048;-63
2023/09/23 12:46:57;;;;;;;2.50;0.80;;;14.50;99.90;;;;;;5061700;28;19924;-63
2023/09/23 12:49:23;;;;;;;;;;;14.50;99.90;;;;;;5066542;28;20064;-63
2023/09/23 12:51:48;;;;;;;2.85;0.77;;;14.50;99.90;;;;;;5059192;28;19920;-63
2023/09/23 12:54:14;;;;;;;;;;;14.40;99.90;;;;;;5066482;28;20796;-63
2023/09/23 12:56:39;;;;;;;2.05;0.60;;;14.30;99.90;;;;;;5065436;28;20459;-63
2023/09/23 12:59:06;;;;;;;;;;;14.10;99.90;;;;;;5065793;28;20044;-63
2023/09/23 13:01:32;;;;;;;2.47;1.00;;;14.00;99.90;;;;;;5064067;28;19952;-63
2023/09/23 13:03:59;;;;;;;2.05;0.60;;;13.90;99.90;;;;;;5063399;28;20718;-63
2023/09/23 13:06:24;;;;;;;5.70;0.88;;;13.90;99.90;;;;;;5062936;28;20037;-63
2023/09/23 13:08:50;;;;;;;;;;;13.90;99.90;;;;;;5063603;28;20454;-63